sensor_id;sensor_type;location;lat;lon;timestamp;pressure;altitude;pressure_sealevel;temperature;humidity
77799;BME280;66989;50.426;15.352;2024-03-02T00:01:21;97168.81;;;8.84;100.00
77799;BME280;66989;50.426;15.352;2024-03-02T00:03:47;97164.25;;;8.86;100.00
77799;BME280;66989;50.426;15.352;2024-03-02T00:06:13;97164.97;;;8.88;100.00
77799;BME280;66989;50.426;15.352;2024-03-02T00:08:38;97165.22;;;8.85;100.00
77799;BME280;66989;50.426;15.352;2024-03-02T00:11:04;97164.13;;;8.88;100.00
77799;BME280;66989;50.426;15.352;2024-03-02T00:13:29;97166.88;;;8.86;100.00
77799;BME280;66989;50.426;15.352;2024-03-02T00:15:56;97166.75;;;8.88;100.00
77799;BME280;66989;50.426;15.352;2024-03-02T00:18:26;97159.72;;;8.88;100.00
77799;BME280;66989;50.426;15.352;2024-03-02T00:20:55;97164.97;;;8.88;100.00
77799;BME280;66989;50.426;15.352;2024-03-02T00:23:22;97168.53;;;8.87;100.00
77799;BME280;66989;50.426;15.352;2024-03-02T00:25:54;97173.94;;;8.86;100.00
77799;BME280;66989;50.426;15.352;2024-03-02T00:28:29;97167.84;;;8.85;100.00
77799;BME280;66989;50.426;15.352;2024-03-02T00:31:12;97167.03;;;8.85;100.00
77799;BME280;66989;50.426;15.352;2024-03-02T00:33:43;97161.91;;;8.83;100.00
77799;BME280;66989;50.426;15.352;2024-03-02T00:36:09;97169.66;;;8.85;100.00
77799;BME280;66989;50.426;15.352;2024-03-02T00:38:44;97175.72;;;8.85;100.00
77799;BME280;66989;50.426;15.352;2024-03-02T00:41:16;97173.09;;;8.85;100.00
77799;BME280;66989;50.426;15.352;2024-03-02T00:46:19;97168.81;;;8.84;100.00
77799;BME280;66989;50.426;15.352;2024-03-02T00:49:05;97173.63;;;8.79;100.00
77799;BME280;66989;50.426;15.352;2024-03-02T00:51:37;97170.88;;;8.81;100.00
77799;BME280;66989;50.426;15.352;2024-03-02T00:54:04;97177.09;;;8.79;100.00
77799;BME280;66989;50.426;15.352;2024-03-02T00:56:31;97176.25;;;8.79;100.00
77799;BME280;66989;50.426;15.352;2024-03-02T00:58:57;97180.56;;;8.80;100.00
77799;BME280;66989;50.426;15.352;2024-03-02T01:01:22;97171.00;;;8.79;100.00
77799;BME280;66989;50.426;15.352;2024-03-02T01:03:48;97177.34;;;8.76;100.00
77799;BME280;66989;50.426;15.352;2024-03-02T01:06:15;97177.47;;;8.75;100.00
77799;BME280;66989;50.426;15.352;2024-03-02T01:08:41;97169.59;;;8.75;100.00
77799;BME280;66989;50.426;15.352;2024-03-02T01:11:06;97173.88;;;8.76;100.00
77799;BME280;66989;50.426;15.352;2024-03-02T01:13:32;97170.56;;;8.74;100.00
77799;BME280;66989;50.426;15.352;2024-03-02T01:15:57;97169.59;;;8.75;100.00
77799;BME280;66989;50.426;15.352;2024-03-02T01:18:23;97172.38;;;8.73;100.00
77799;BME280;66989;50.426;15.352;2024-03-02T01:20:49;97171.41;;;8.74;100.00
77799;BME280;66989;50.426;15.352;2024-03-02T01:23:21;97173.19;;;8.74;100.00
77799;BME280;66989;50.426;15.352;2024-03-02T01:25:50;97163.66;;;8.73;100.00
77799;BME280;66989;50.426;15.352;2024-03-02T01:28:17;97168.09;;;8.72;100.00
77799;BME280;66989;50.426;15.352;2024-03-02T01:30:42;97169.84;;;8.72;100.00
77799;BME280;66989;50.426;15.352;2024-03-02T01:33:08;97169.03;;;8.71;100.00
77799;BME280;66989;50.426;15.352;2024-03-02T01:35:34;97155.06;;;8.71;100.00
77799;BME280;66989;50.426;15.352;2024-03-02T01:38:02;97171.78;;;8.70;100.00
77799;BME280;66989;50.426;15.352;2024-03-02T01:40:28;97163.91;;;8.70;100.00
77799;BME280;66989;50.426;15.352;2024-03-02T01:42:54;97156.03;;;8.70;100.00
77799;BME280;66989;50.426;15.352;2024-03-02T01:45:21;97161.28;;;8.70;100.00
77799;BME280;66989;50.426;15.352;2024-03-02T01:47:47;97161.28;;;8.70;100.00
77799;BME280;66989;50.426;15.352;2024-03-02T01:50:12;97150.78;;;8.70;100.00
77799;BME280;66989;50.426;15.352;2024-03-02T01:52:39;97157.81;;;8.69;100.00
77799;BME280;66989;50.426;15.352;2024-03-02T01:55:05;97149.94;;;8.69;100.00
77799;BME280;66989;50.426;15.352;2024-03-02T01:57:31;97156.59;;;8.73;100.00
77799;BME280;66989;50.426;15.352;2024-03-02T01:59:57;97161.31;;;8.79;100.00
77799;BME280;66989;50.426;15.352;2024-03-02T02:02:23;97158.56;;;8.81;100.00
77799;BME280;66989;50.426;15.352;2024-03-02T02:04:48;97155.97;;;8.91;100.00
77799;BME280;66989;50.426;15.352;2024-03-02T02:07:13;97158.59;;;8.91;100.00
77799;BME280;66989;50.426;15.352;2024-03-02T02:09:41;97149.75;;;8.92;100.00
77799;BME280;66989;50.426;15.352;2024-03-02T02:12:07;97160.25;;;8.92;100.00
77799;BME280;66989;50.426;15.352;2024-03-02T02:14:32;97158.75;;;8.89;100.00
77799;BME280;66989;50.426;15.352;2024-03-02T02:16:58;97160.41;;;8.90;100.00
77799;BME280;66989;50.426;15.352;2024-03-02T02:19:24;97161.63;;;8.86;100.00
77799;BME280;66989;50.426;15.352;2024-03-02T02:21:49;97160.94;;;8.84;100.00
77799;BME280;66989;50.426;15.352;2024-03-02T02:24:14;97160.94;;;8.84;100.00
77799;BME280;66989;50.426;15.352;2024-03-02T02:26:40;97160.94;;;8.84;100.00
77799;BME280;66989;50.426;15.352;2024-03-02T02:29:05;97151.38;;;8.83;100.00
77799;BME280;66989;50.426;15.352;2024-03-02T02:31:37;97157.59;;;8.82;100.00
77799;BME280;66989;50.426;15.352;2024-03-02T02:34:03;97153.31;;;8.81;100.00
77799;BME280;66989;50.426;15.352;2024-03-02T02:36:29;97157.72;;;8.81;100.00
77799;BME280;66989;50.426;15.352;2024-03-02T02:38:55;97146.38;;;8.80;100.00
77799;BME280;66989;50.426;15.352;2024-03-02T02:41:20;97142.94;;;8.79;100.00
77799;BME280;66989;50.426;15.352;2024-03-02T02:43:45;97150.81;;;8.79;100.00
77799;BME280;66989;50.426;15.352;2024-03-02T02:46:11;97143.91;;;8.78;100.00
77799;BME280;66989;50.426;15.352;2024-03-02T02:48:36;97142.09;;;8.79;100.00
77799;BME280;66989;50.426;15.352;2024-03-02T02:51:01;97146.53;;;8.78;100.00
77799;BME280;66989;50.426;15.352;2024-03-02T02:53:28;97138.75;;;8.77;100.00
77799;BME280;66989;50.426;15.352;2024-03-02T02:55:53;97149.69;;;8.82;100.00
77799;BME280;66989;50.426;15.352;2024-03-02T02:58:19;97141.56;;;8.85;100.00
77799;BME280;66989;50.426;15.352;2024-03-02T03:00:44;97141.41;;;8.87;100.00
77799;BME280;66989;50.426;15.352;2024-03-02T03:03:09;97144.63;;;8.90;100.00
77799;BME280;66989;50.426;15.352;2024-03-02T03:05:35;97149.75;;;8.92;100.00
77799;BME280;66989;50.426;15.352;2024-03-02T03:08:00;97157.63;;;8.92;100.00
77799;BME280;66989;50.426;15.352;2024-03-02T03:10:26;97155.81;;;8.92;99.93
77799;BME280;66989;50.426;15.352;2024-03-02T03:12:52;97147.81;;;8.94;99.74
77799;BME280;66989;50.426;15.352;2024-03-02T03:15:18;97155.81;;;8.92;100.00
77799;BME280;66989;50.426;15.352;2024-03-02T03:17:43;97151.69;;;8.90;99.99
77799;BME280;66989;50.426;15.352;2024-03-02T03:20:09;97149.06;;;8.90;100.00
77799;BME280;66989;50.426;15.352;2024-03-02T03:22:35;97155.28;;;8.89;100.00
77799;BME280;66989;50.426;15.352;2024-03-02T03:25:01;97155.28;;;8.89;99.76
77799;BME280;66989;50.426;15.352;2024-03-02T03:27:26;97160.41;;;8.90;99.93
77799;BME280;66989;50.426;15.352;2024-03-02T03:29:52;97157.50;;;8.93;99.82
77799;BME280;66989;50.426;15.352;2024-03-02T03:32:17;97164.44;;;8.94;99.62
77799;BME280;66989;50.426;15.352;2024-03-02T03:34:43;97159.44;;;8.91;99.81
77799;BME280;66989;50.426;15.352;2024-03-02T03:37:08;97160.41;;;8.90;99.77
77799;BME280;66989;50.426;15.352;2024-03-02T03:39:35;97167.31;;;8.91;99.11
77799;BME280;66989;50.426;15.352;2024-03-02T03:42:04;97161.50;;;8.88;99.33
77799;BME280;66989;50.426;15.352;2024-03-02T03:44:29;97157.19;;;8.87;99.54
77799;BME280;66989;50.426;15.352;2024-03-02T03:46:54;97158.31;;;8.84;99.33
77799;BME280;66989;50.426;15.352;2024-03-02T03:49:20;97163.69;;;8.83;99.78
77799;BME280;66989;50.426;15.352;2024-03-02T03:51:45;97167.16;;;8.83;100.00
77799;BME280;66989;50.426;15.352;2024-03-02T03:54:11;97167.41;;;8.80;99.93
77799;BME280;66989;50.426;15.352;2024-03-02T03:56:37;97167.66;;;8.77;100.00
77799;BME280;66989;50.426;15.352;2024-03-02T03:59:02;97175.53;;;8.77;100.00
77799;BME280;66989;50.426;15.352;2024-03-02T04:01:28;97177.34;;;8.76;100.00
77799;BME280;66989;50.426;15.352;2024-03-02T04:03:53;97177.47;;;8.75;100.00
77799;BME280;66989;50.426;15.352;2024-03-02T04:06:18;97178.44;;;8.74;100.00
77799;BME280;66989;50.426;15.352;2024-03-02T04:08:44;97180.13;;;8.75;100.00
77799;BME280;66989;50.426;15.352;2024-03-02T04:11:09;97181.91;;;8.74;99.21
77799;BME280;66989;50.426;15.352;2024-03-02T04:13:34;97179.16;;;8.76;98.31
77799;BME280;66989;50.426;15.352;2024-03-02T04:16:00;97183.19;;;8.80;97.78
77799;BME280;66989;50.426;15.352;2024-03-02T04:18:25;97182.09;;;8.83;96.82
77799;BME280;66989;50.426;15.352;2024-03-02T04:20:50;97182.09;;;8.83;95.84
77799;BME280;66989;50.426;15.352;2024-03-02T04:23:16;97193.69;;;8.80;95.59
77799;BME280;66989;50.426;15.352;2024-03-02T04:25:42;97193.00;;;8.78;94.92
77799;BME280;66989;50.426;15.352;2024-03-02T04:28:07;97192.88;;;8.79;95.22
77799;BME280;66989;50.426;15.352;2024-03-02T04:30:33;97195.34;;;8.81;94.37
77799;BME280;66989;50.426;15.352;2024-03-02T04:32:58;97190.38;;;8.78;94.14
77799;BME280;66989;50.426;15.352;2024-03-02T04:35:24;97198.66;;;8.73;94.62
77799;BME280;66989;50.426;15.352;2024-03-02T04:37:50;97200.97;;;8.67;94.74
77799;BME280;66989;50.426;15.352;2024-03-02T04:40:15;97202.31;;;8.61;94.97
77799;BME280;66989;50.426;15.352;2024-03-02T04:42:41;97207.69;;;8.60;94.91
77799;BME280;66989;50.426;15.352;2024-03-02T04:45:06;97205.34;;;8.57;95.36
77799;BME280;66989;50.426;15.352;2024-03-02T04:47:32;97209.88;;;8.55;95.39
77799;BME280;66989;50.426;15.352;2024-03-02T04:49:58;97202.81;;;8.55;94.84
77799;BME280;66989;50.426;15.352;2024-03-02T04:52:23;97214.06;;;8.57;94.03
77799;BME280;66989;50.426;15.352;2024-03-02T04:54:48;97205.19;;;8.58;94.15
77799;BME280;66989;50.426;15.352;2024-03-02T04:57:32;97211.97;;;8.61;93.79
77799;BME280;66989;50.426;15.352;2024-03-02T04:59:58;97218.19;;;8.60;93.42
77799;BME280;66989;50.426;15.352;2024-03-02T05:02:23;97209.34;;;8.61;93.07
77799;BME280;66989;50.426;15.352;2024-03-02T05:04:49;97214.50;;;8.62;93.38
77799;BME280;66989;50.426;15.352;2024-03-02T05:07:14;97214.75;;;8.59;93.22
77799;BME280;66989;50.426;15.352;2024-03-02T05:09:40;97220.38;;;8.55;93.62
77799;BME280;66989;50.426;15.352;2024-03-02T05:12:05;97218.72;;;8.53;93.49
77799;BME280;66989;50.426;15.352;2024-03-02T05:14:49;97226.47;;;8.55;93.33
77799;BME280;66989;50.426;15.352;2024-03-02T05:17:14;97230.66;;;8.58;92.97
77799;BME280;66989;50.426;15.352;2024-03-02T05:19:40;97221.66;;;8.60;93.03
77799;BME280;66989;50.426;15.352;2024-03-02T05:22:05;97222.03;;;8.56;93.12
77799;BME280;66989;50.426;15.352;2024-03-02T05:24:30;97239.50;;;8.57;93.19
77799;BME280;66989;50.426;15.352;2024-03-02T05:26:56;97238.09;;;8.52;93.68
77799;BME280;66989;50.426;15.352;2024-03-02T05:29:21;97229.63;;;8.49;94.10
77799;BME280;66989;50.426;15.352;2024-03-02T05:31:47;97234.28;;;8.45;93.87
77799;BME280;66989;50.426;15.352;2024-03-02T05:34:13;97229.84;;;8.46;93.99
77799;BME280;66989;50.426;15.352;2024-03-02T05:36:38;97229.16;;;8.44;94.05
77799;BME280;66989;50.426;15.352;2024-03-02T05:39:04;97238.00;;;8.43;94.41
77799;BME280;66989;50.426;15.352;2024-03-02T05:41:31;97248.66;;;8.41;94.52
77799;BME280;66989;50.426;15.352;2024-03-02T05:43:57;97247.94;;;8.39;94.46
77799;BME280;66989;50.426;15.352;2024-03-02T05:46:22;97242.81;;;8.38;94.77
77799;BME280;66989;50.426;15.352;2024-03-02T05:48:47;97242.81;;;8.38;95.04
77799;BME280;66989;50.426;15.352;2024-03-02T05:51:13;97239.34;;;8.37;94.84
77799;BME280;66989;50.426;15.352;2024-03-02T05:53:38;97242.97;;;8.36;95.24
77799;BME280;66989;50.426;15.352;2024-03-02T05:56:05;97243.66;;;8.38;94.93
77799;BME280;66989;50.426;15.352;2024-03-02T05:58:31;97247.25;;;8.37;94.86
77799;BME280;66989;50.426;15.352;2024-03-02T06:01:23;97252.72;;;8.34;95.23
77799;BME280;66989;50.426;15.352;2024-03-02T06:03:54;97250.84;;;8.36;95.34
77799;BME280;66989;50.426;15.352;2024-03-02T06:06:19;97257.47;;;8.40;95.02
77799;BME280;66989;50.426;15.352;2024-03-02T06:08:46;97253.19;;;8.39;95.17
77799;BME280;66989;50.426;15.352;2024-03-02T06:11:11;97251.53;;;8.38;94.79
77799;BME280;66989;50.426;15.352;2024-03-02T06:13:36;97257.09;;;8.45;94.56
77799;BME280;66989;50.426;15.352;2024-03-02T06:16:02;97263.53;;;8.52;93.80
77799;BME280;66989;50.426;15.352;2024-03-02T06:18:27;97260.19;;;8.50;93.64
77799;BME280;66989;50.426;15.352;2024-03-02T06:20:53;97271.66;;;8.49;93.96
77799;BME280;66989;50.426;15.352;2024-03-02T06:23:19;97265.69;;;8.47;93.58
77799;BME280;66989;50.426;15.352;2024-03-02T06:25:44;97281.56;;;8.45;93.12
77799;BME280;66989;50.426;15.352;2024-03-02T06:28:10;97276.75;;;8.50;93.36
77799;BME280;66989;50.426;15.352;2024-03-02T06:30:35;97281.78;;;8.53;92.55
77799;BME280;66989;50.426;15.352;2024-03-02T06:33:00;97282.59;;;8.54;92.56
77799;BME280;66989;50.426;15.352;2024-03-02T06:35:26;97279.41;;;8.50;92.53
77799;BME280;66989;50.426;15.352;2024-03-02T06:37:51;97290.63;;;8.52;92.51
77799;BME280;66989;50.426;15.352;2024-03-02T06:40:16;97288.09;;;8.51;92.63
77799;BME280;66989;50.426;15.352;2024-03-02T06:42:42;97294.47;;;8.48;92.43
77799;BME280;66989;50.426;15.352;2024-03-02T06:45:07;97294.47;;;8.48;92.36
77799;BME280;66989;50.426;15.352;2024-03-02T06:47:33;97291.97;;;8.47;92.86
77799;BME280;66989;50.426;15.352;2024-03-02T06:49:58;97295.88;;;8.52;91.88
77799;BME280;66989;50.426;15.352;2024-03-02T06:52:24;97294.91;;;8.53;91.36
77799;BME280;66989;50.426;15.352;2024-03-02T06:54:50;97313.31;;;8.53;91.34
77799;BME280;66989;50.426;15.352;2024-03-02T06:57:15;97304.00;;;8.49;91.83
77799;BME280;66989;50.426;15.352;2024-03-02T06:59:42;97306.94;;;8.56;91.47
77799;BME280;66989;50.426;15.352;2024-03-02T07:02:07;97307.66;;;8.58;91.05
77799;BME280;66989;50.426;15.352;2024-03-02T07:04:34;97320.09;;;8.56;91.44
77799;BME280;66989;50.426;15.352;2024-03-02T07:06:59;97313.91;;;8.57;90.64
77799;BME280;66989;50.426;15.352;2024-03-02T07:09:24;97324.88;;;8.51;91.13
77799;BME280;66989;50.426;15.352;2024-03-02T07:11:51;97311.88;;;8.49;91.07
77799;BME280;66989;50.426;15.352;2024-03-02T07:14:16;97314.13;;;8.54;91.46
77799;BME280;66989;50.426;15.352;2024-03-02T07:16:41;97314.97;;;8.55;91.28
77799;BME280;66989;50.426;15.352;2024-03-02T07:19:08;97306.13;;;8.56;91.24
77799;BME280;66989;50.426;15.352;2024-03-02T07:21:34;97305.88;;;8.59;90.70
77799;BME280;66989;50.426;15.352;2024-03-02T07:23:59;97306.31;;;8.64;90.21
77799;BME280;66989;50.426;15.352;2024-03-02T07:26:25;97299.06;;;8.77;89.63
77799;BME280;66989;50.426;15.352;2024-03-02T07:28:51;97302.41;;;8.79;89.21
77799;BME280;66989;50.426;15.352;2024-03-02T07:31:17;97304.41;;;8.87;88.78
77799;BME280;66989;50.426;15.352;2024-03-02T07:33:45;97306.13;;;8.97;88.18
77799;BME280;66989;50.426;15.352;2024-03-02T07:36:12;97292.59;;;9.02;88.38
77799;BME280;66989;50.426;15.352;2024-03-02T07:38:37;97297.47;;;9.07;88.30
77799;BME280;66989;50.426;15.352;2024-03-02T07:41:03;97299.84;;;9.10;87.99
77799;BME280;66989;50.426;15.352;2024-03-02T07:43:30;97311.09;;;9.21;87.36
77799;BME280;66989;50.426;15.352;2024-03-02T07:45:59;97314.75;;;9.30;87.09
77799;BME280;66989;50.426;15.352;2024-03-02T07:48:24;97319.47;;;9.36;87.37
77799;BME280;66989;50.426;15.352;2024-03-02T07:50:50;97317.03;;;9.44;86.33
77799;BME280;66989;50.426;15.352;2024-03-02T07:53:15;97314.03;;;9.58;86.77
77799;BME280;66989;50.426;15.352;2024-03-02T07:55:41;97328.34;;;9.66;85.68
77799;BME280;66989;50.426;15.352;2024-03-02T07:58:06;97328.19;;;9.67;85.10
77799;BME280;66989;50.426;15.352;2024-03-02T08:00:32;97329.03;;;9.68;84.49
77799;BME280;66989;50.426;15.352;2024-03-02T08:02:58;97335.78;;;9.61;84.09
77799;BME280;66989;50.426;15.352;2024-03-02T08:05:24;97334.53;;;9.65;85.08
77799;BME280;66989;50.426;15.352;2024-03-02T08:07:49;97331.91;;;9.65;84.86
77799;BME280;66989;50.426;15.352;2024-03-02T08:10:17;97330.81;;;9.67;84.42
77799;BME280;66989;50.426;15.352;2024-03-02T08:12:43;97331.94;;;9.74;84.13
77799;BME280;66989;50.426;15.352;2024-03-02T08:15:08;97346.63;;;9.67;84.87
77799;BME280;66989;50.426;15.352;2024-03-02T08:17:34;97346.06;;;9.73;84.61
77799;BME280;66989;50.426;15.352;2024-03-02T08:19:59;97349.09;;;9.69;84.57
77799;BME280;66989;50.426;15.352;2024-03-02T08:22:24;97345.22;;;9.63;84.26
77799;BME280;66989;50.426;15.352;2024-03-02T08:24:50;97350.06;;;9.68;85.31
77799;BME280;66989;50.426;15.352;2024-03-02T08:27:16;97341.78;;;9.72;84.60
77799;BME280;66989;50.426;15.352;2024-03-02T08:29:41;97352.06;;;9.75;83.94
77799;BME280;66989;50.426;15.352;2024-03-02T08:32:07;97351.34;;;9.73;84.06
77799;BME280;66989;50.426;15.352;2024-03-02T08:34:32;97349.09;;;9.69;84.03
77799;BME280;66989;50.426;15.352;2024-03-02T08:37:01;97359.63;;;9.69;83.64
77799;BME280;66989;50.426;15.352;2024-03-02T08:39:26;97342.06;;;9.79;83.94
77799;BME280;66989;50.426;15.352;2024-03-02T08:41:52;97344.81;;;9.68;84.32
77799;BME280;66989;50.426;15.352;2024-03-02T08:44:18;97346.91;;;9.74;84.13
77799;BME280;66989;50.426;15.352;2024-03-02T08:46:43;97343.59;;;9.72;83.87
77799;BME280;66989;50.426;15.352;2024-03-02T08:49:09;97362.66;;;9.64;83.75
77799;BME280;66989;50.426;15.352;2024-03-02T08:51:34;97359.97;;;9.54;84.01
77799;BME280;66989;50.426;15.352;2024-03-02T08:54:00;97346.00;;;9.54;84.55
77799;BME280;66989;50.426;15.352;2024-03-02T08:56:25;97353.09;;;9.63;84.34
77799;BME280;66989;50.426;15.352;2024-03-02T08:58:51;97352.03;;;9.66;84.39
77799;BME280;66989;50.426;15.352;2024-03-02T09:01:17;97353.25;;;9.62;83.76
77799;BME280;66989;50.426;15.352;2024-03-02T09:03:43;97352.41;;;9.61;84.53
77799;BME280;66989;50.426;15.352;2024-03-02T09:06:12;97357.28;;;9.66;84.81
77799;BME280;66989;50.426;15.352;2024-03-02T09:08:38;97365.19;;;9.66;84.03
77799;BME280;66989;50.426;15.352;2024-03-02T09:11:05;97358.13;;;9.66;84.15
77799;BME280;66989;50.426;15.352;2024-03-02T09:13:32;97357.44;;;9.74;83.58
77799;BME280;66989;50.426;15.352;2024-03-02T09:15:58;97358.69;;;9.79;83.72
77799;BME280;66989;50.426;15.352;2024-03-02T09:18:23;97358.16;;;9.76;83.79
77799;BME280;66989;50.426;15.352;2024-03-02T09:20:49;97360.09;;;9.83;83.13
77799;BME280;66989;50.426;15.352;2024-03-02T09:23:14;97358.31;;;9.84;83.02
77799;BME280;66989;50.426;15.352;2024-03-02T09:25:39;97358.78;;;9.99;82.70
77799;BME280;66989;50.426;15.352;2024-03-02T09:28:05;97357.69;;;10.11;81.91
77799;BME280;66989;50.426;15.352;2024-03-02T09:30:32;97364.19;;;9.97;82.35
77799;BME280;66989;50.426;15.352;2024-03-02T09:32:57;97352.41;;;10.01;82.08
77799;BME280;66989;50.426;15.352;2024-03-02T09:35:22;97361.66;;;9.96;82.27
77799;BME280;66989;50.426;15.352;2024-03-02T09:37:48;97361.00;;;10.03;82.57
77799;BME280;66989;50.426;15.352;2024-03-02T09:40:13;97358.38;;;10.03;81.86
77799;BME280;66989;50.426;15.352;2024-03-02T09:42:40;97360.06;;;10.14;81.52
77799;BME280;66989;50.426;15.352;2024-03-02T09:45:06;97356.16;;;10.08;81.39
77799;BME280;66989;50.426;15.352;2024-03-02T09:47:32;97358.25;;;10.15;81.17
77799;BME280;66989;50.426;15.352;2024-03-02T09:49:57;97357.84;;;10.19;81.49
77799;BME280;66989;50.426;15.352;2024-03-02T09:52:24;97356.22;;;10.28;81.27
77799;BME280;66989;50.426;15.352;2024-03-02T09:54:49;97360.50;;;10.29;81.38
77799;BME280;66989;50.426;15.352;2024-03-02T09:57:15;97361.19;;;10.31;80.32
77799;BME280;66989;50.426;15.352;2024-03-02T09:59:40;97357.88;;;10.29;80.30
77799;BME280;66989;50.426;15.352;2024-03-02T10:02:06;97360.06;;;10.24;80.32
77799;BME280;66989;50.426;15.352;2024-03-02T10:04:32;97351.78;;;10.28;79.63
77799;BME280;66989;50.426;15.352;2024-03-02T10:07:18;97362.59;;;10.35;79.75
77799;BME280;66989;50.426;15.352;2024-03-02T10:09:47;97349.88;;;10.40;79.30
77799;BME280;66989;50.426;15.352;2024-03-02T10:12:17;97358.34;;;10.44;79.02
77799;BME280;66989;50.426;15.352;2024-03-02T10:14:43;97357.06;;;10.57;79.45
77799;BME280;66989;50.426;15.352;2024-03-02T10:17:10;97353.06;;;10.73;79.03
77799;BME280;66989;50.426;15.352;2024-03-02T10:19:36;97353.78;;;10.75;78.43
77799;BME280;66989;50.426;15.352;2024-03-02T10:22:09;97354.28;;;10.88;77.96
77799;BME280;66989;50.426;15.352;2024-03-02T10:24:36;97359.03;;;10.94;77.84
77799;BME280;66989;50.426;15.352;2024-03-02T10:27:28;97347.09;;;10.90;75.93
77799;BME280;66989;50.426;15.352;2024-03-02T10:29:55;97354.84;;;11.01;76.55
77799;BME280;66989;50.426;15.352;2024-03-02T10:32:22;97353.72;;;11.04;77.44
77799;BME280;66989;50.426;15.352;2024-03-02T10:34:47;97346.22;;;11.09;77.57
77799;BME280;66989;50.426;15.352;2024-03-02T10:37:14;97347.50;;;11.05;76.93
77799;BME280;66989;50.426;15.352;2024-03-02T10:39:40;97343.88;;;11.16;75.67
77799;BME280;66989;50.426;15.352;2024-03-02T10:42:06;97347.16;;;11.27;74.29
77799;BME280;66989;50.426;15.352;2024-03-02T10:44:33;97339.34;;;11.35;74.18
77799;BME280;66989;50.426;15.352;2024-03-02T10:47:03;97343.78;;;11.45;73.27
77799;BME280;66989;50.426;15.352;2024-03-02T10:49:30;97342.66;;;11.47;73.57
77799;BME280;66989;50.426;15.352;2024-03-02T10:52:00;97339.84;;;11.58;72.29
77799;BME280;66989;50.426;15.352;2024-03-02T10:54:25;97335.28;;;11.51;72.79
77799;BME280;66989;50.426;15.352;2024-03-02T10:56:53;97339.16;;;11.56;72.80
77799;BME280;66989;50.426;15.352;2024-03-02T11:01:57;97331.88;;;11.68;71.93
77799;BME280;66989;50.426;15.352;2024-03-02T11:04:28;97329.09;;;11.70;71.84
77799;BME280;66989;50.426;15.352;2024-03-02T11:09:27;97331.88;;;11.68;71.32
77799;BME280;66989;50.426;15.352;2024-03-02T11:12:01;97333.38;;;11.71;71.79
77799;BME280;66989;50.426;15.352;2024-03-02T11:14:30;97329.72;;;11.54;72.54
77799;BME280;66989;50.426;15.352;2024-03-02T11:16:57;97328.06;;;11.53;73.15
77799;BME280;66989;50.426;15.352;2024-03-02T11:19:23;97329.16;;;11.50;74.34
77799;BME280;66989;50.426;15.352;2024-03-02T11:21:51;97330.25;;;11.57;72.79
77799;BME280;66989;50.426;15.352;2024-03-02T11:27:03;97324.28;;;11.55;72.75
77799;BME280;66989;50.426;15.352;2024-03-02T11:32:05;97328.06;;;11.53;74.07
77799;BME280;66989;50.426;15.352;2024-03-02T11:34:32;97325.09;;;11.56;72.91
77799;BME280;66989;50.426;15.352;2024-03-02T11:36:58;97322.78;;;11.53;73.57
77799;BME280;66989;50.426;15.352;2024-03-02T11:39:26;97322.97;;;11.42;73.94
77799;BME280;66989;50.426;15.352;2024-03-02T11:41:52;97314.75;;;11.35;73.58
77799;BME280;66989;50.426;15.352;2024-03-02T11:44:19;97322.81;;;11.43;74.42
77799;BME280;66989;50.426;15.352;2024-03-02T11:47:07;97319.38;;;11.60;73.26
77799;BME280;66989;50.426;15.352;2024-03-02T11:49:37;97321.09;;;11.61;73.65
77799;BME280;66989;50.426;15.352;2024-03-02T11:52:04;97320.19;;;11.71;73.19
77799;BME280;66989;50.426;15.352;2024-03-02T11:54:32;97319.69;;;11.85;73.03
77799;BME280;66989;50.426;15.352;2024-03-02T11:57:01;97313.69;;;11.93;73.34
77799;BME280;66989;50.426;15.352;2024-03-02T11:59:28;97314.06;;;12.25;72.32
77799;BME280;66989;50.426;15.352;2024-03-02T12:01:54;97314.75;;;12.45;72.18
77799;BME280;66989;50.426;15.352;2024-03-02T12:04:21;97307.28;;;12.76;70.47
77799;BME280;66989;50.426;15.352;2024-03-02T12:06:46;97301.91;;;13.12;68.57
77799;BME280;66989;50.426;15.352;2024-03-02T12:09:13;97295.25;;;13.34;67.50
77799;BME280;66989;50.426;15.352;2024-03-02T12:11:40;97300.28;;;13.45;67.67
77799;BME280;66989;50.426;15.352;2024-03-02T12:14:11;97290.69;;;13.52;67.88
77799;BME280;66989;50.426;15.352;2024-03-02T12:16:38;97291.16;;;13.73;67.39
77799;BME280;66989;50.426;15.352;2024-03-02T12:19:05;97291.63;;;14.11;66.70
77799;BME280;66989;50.426;15.352;2024-03-02T12:21:31;97293.09;;;14.14;65.71
77799;BME280;66989;50.426;15.352;2024-03-02T12:23:57;97280.44;;;14.66;64.32
77799;BME280;66989;50.426;15.352;2024-03-02T12:26:22;97289.69;;;15.11;63.04
77799;BME280;66989;50.426;15.352;2024-03-02T12:28:48;97288.03;;;15.18;61.31
77799;BME280;66989;50.426;15.352;2024-03-02T12:31:18;97293.38;;;14.77;63.14
77799;BME280;66989;50.426;15.352;2024-03-02T12:33:44;97293.88;;;14.73;62.75
77799;BME280;66989;50.426;15.352;2024-03-02T12:36:10;97295.19;;;14.52;63.35
77799;BME280;66989;50.426;15.352;2024-03-02T12:38:37;97293.34;;;14.45;64.26
77799;BME280;66989;50.426;15.352;2024-03-02T12:41:03;97299.28;;;14.22;64.45
77799;BME280;66989;50.426;15.352;2024-03-02T12:43:31;97294.72;;;13.98;65.81
77799;BME280;66989;50.426;15.352;2024-03-02T12:45:57;97288.50;;;14.16;65.86
77799;BME280;66989;50.426;15.352;2024-03-02T12:48:23;97291.84;;;14.26;65.62
77799;BME280;66989;50.426;15.352;2024-03-02T12:50:49;97287.47;;;14.09;65.49
77799;BME280;66989;50.426;15.352;2024-03-02T12:53:15;97285.03;;;14.15;66.17
77799;BME280;66989;50.426;15.352;2024-03-02T12:55:41;97285.66;;;14.17;65.84
77799;BME280;66989;50.426;15.352;2024-03-02T12:58:07;97274.84;;;13.60;67.59
77799;BME280;66989;50.426;15.352;2024-03-02T13:00:32;97280.84;;;13.70;68.39
77799;BME280;66989;50.426;15.352;2024-03-02T13:03:00;97273.09;;;13.77;67.39
77799;BME280;66989;50.426;15.352;2024-03-02T13:05:32;97271.03;;;13.55;68.99